Time;durP1;ratioP1;P1;durP2;ratioP2;P2;SDS_P1;SDS_P2;PMS_P1;PMS_P2;Temp;Humidity;BMP_temperature;BMP_pressure;BME280_temperature;BME280_humidity;BME280_pressure;Samples;Min_cycle;Max_cycle;Signal;HPM_P1;HPM_P2
2021/04/13 00:10:01;;;;;;;2.30;2.10;;;;;;;2.04;71.59;100209.70;471250;1171;115090;-61
2021/04/13 00:20:09;;;;;;;;;;;;;;;1.98;71.78;100233.98;471245;1171;115082;-61
2021/04/13 00:30:16;;;;;;;4.80;3.00;;;;;;;1.80;72.43;100222.22;471319;1170;100372;-61
2021/04/13 00:40:27;;;;;;;3.40;2.00;;;;;;;1.75;72.71;100244.73;471045;1171;114964;-61
2021/04/13 00:50:37;;;;;;;4.93;2.97;;;;;;;1.64;73.44;100252.69;470986;1171;114018;-61
2021/04/13 01:00:48;;;;;;;2.13;1.57;;;;;;;1.45;72.93;100247.80;470908;1171;113990;-60
2021/04/13 01:10:56;;;;;;;2.00;1.80;;;;;;;1.36;73.51;100230.69;471299;1171;113980;-61
2021/04/13 01:21:06;;;;;;;1.90;1.35;;;;;;;1.24;74.05;100225.71;471329;1170;113696;-61
2021/04/13 01:31:40;;;;;;;2.37;1.43;;;;;;;1.08;73.87;100219.91;470977;1170;114270;-63
2021/04/13 01:41:56;;;;;;;1.27;0.83;;;;;;;0.90;74.44;100228.78;470030;1171;114135;-63
2021/04/13 01:52:00;;;;;;;4.05;1.20;;;;;;;0.74;74.13;100231.56;471329;1170;114266;-62
2021/04/13 02:02:12;;;;;;;4.45;1.25;;;;;;;0.67;74.73;100223.03;471161;1171;114248;-61
2021/04/13 02:12:22;;;;;;;4.53;1.93;;;;;;;0.58;75.24;100227.48;471302;1171;114166;-63
2021/04/13 02:22:28;;;;;;;1.80;1.65;;;;;;;0.62;76.01;100248.09;471569;1171;114221;-61
2021/04/13 02:32:34;;;;;;;3.90;2.70;;;;;;;0.57;76.00;100267.95;471620;1170;113970;-63
2021/04/13 02:42:45;;;;;;;3.80;2.50;;;;;;;0.61;76.49;100284.30;471280;1171;114279;-62
2021/04/13 02:52:52;;;;;;;3.30;2.93;;;;;;;0.62;76.76;100288.58;471202;1172;114827;-62
2021/04/13 03:02:58;;;;;;;5.57;4.20;;;;;;;0.65;76.18;100286.83;471388;1171;114435;-64
2021/04/13 03:13:08;;;;;;;5.25;4.75;;;;;;;0.60;76.38;100291.20;471172;1171;114976;-61
2021/04/13 03:23:17;;;;;;;6.00;4.85;;;;;;;0.57;76.44;100303.30;470371;1171;115300;-63
2021/04/13 03:33:25;;;;;;;7.10;5.10;;;;;;;0.55;77.04;100301.59;471680;1170;114009;-62
2021/04/13 03:43:31;;;;;;;10.75;6.40;;;;;;;0.60;77.26;100305.84;471523;1170;114150;-62
2021/04/13 03:53:38;;;;;;;10.53;7.00;;;;;;;0.65;77.08;100301.50;471071;1170;114548;-61
2021/04/13 04:03:45;;;;;;;12.40;6.47;;;;;;;0.71;77.27;100298.82;471125;1170;114231;-62
2021/04/13 04:13:53;;;;;;;10.10;6.70;;;;;;;0.76;77.59;100291.88;471508;1170;114937;-63
2021/04/13 04:23:59;;;;;;;8.73;6.47;;;;;;;0.80;76.68;100290.09;471453;1170;114412;-62
2021/04/13 04:34:35;;;;;;;10.67;7.07;;;;;;;0.85;77.35;100306.42;471403;1170;114986;-61
2021/04/13 04:44:40;;;;;;;10.60;7.37;;;;;;;0.81;77.18;100308.18;471146;1170;114025;-63
2021/04/13 04:54:45;;;;;;;11.30;7.93;;;;;;;0.77;76.82;100310.81;471031;1171;114111;-62
2021/04/13 05:04:49;;;;;;;8.73;6.83;;;;;;;0.61;77.71;100317.89;471537;1171;114043;-63
2021/04/13 05:14:52;;;;;;;8.00;5.13;;;;;;;0.66;77.98;100327.30;469765;1171;113897;-62
2021/04/13 05:24:56;;;;;;;5.37;3.93;;;;;;;0.65;78.19;100345.44;471330;1171;114280;-62
2021/04/13 05:35:00;;;;;;;2.83;2.37;;;;;;;0.68;78.11;100353.16;471431;1170;114427;-68
2021/04/13 05:45:10;;;;;;;7.40;3.40;;;;;;;0.78;78.05;100378.03;471725;1170;114518;-62
2021/04/13 05:55:16;;;;;;;7.30;4.45;;;;;;;0.93;78.25;100392.53;471307;1171;114441;-63
2021/04/13 06:05:22;;;;;;;3.87;3.47;;;;;;;0.93;77.94;100400.28;471674;1171;114306;-63
2021/04/13 06:15:28;;;;;;;5.23;2.83;;;;;;;1.05;77.61;100406.19;471901;1171;116079;-62
2021/04/13 06:25:33;;;;;;;4.60;3.00;;;;;;;1.17;77.78;100405.17;470940;1170;114335;-63
2021/04/13 06:35:37;;;;;;;5.40;4.90;;;;;;;1.40;76.89;100408.33;471269;1170;113923;-63
2021/04/13 06:45:55;;;;;;;6.60;5.17;;;;;;;1.57;76.76;100415.03;470967;1171;115020;-62
2021/04/13 06:56:15;;;;;;;6.75;5.75;;;;;;;1.64;77.13;100421.81;471537;1172;114364;-64
2021/04/13 07:06:25;;;;;;;5.17;3.80;;;;;;;1.85;76.77;100435.34;471388;1171;113801;-64
2021/04/13 07:16:37;;;;;;;5.50;3.85;;;;;;;1.95;76.85;100438.64;471046;1171;114464;-58
2021/04/13 07:26:47;;;;;;;11.30;5.57;;;;;;;2.05;76.55;100444.56;472406;1170;114163;-59
2021/04/13 07:36:59;;;;;;;7.13;5.70;;;;;;;2.14;76.74;100447.02;455607;1170;20003521;-60
2021/04/13 07:47:18;;;;;;;9.00;6.90;;;;;;;2.24;76.43;100458.09;471718;1171;114447;-58
2021/04/13 07:57:32;;;;;;;6.75;5.80;;;;;;;2.48;76.02;100462.03;470913;1170;114548;-59
2021/04/13 08:07:38;;;;;;;9.60;8.70;;;;;;;2.87;75.99;100460.50;471043;1171;114728;-60
2021/04/13 08:18:08;;;;;;;11.50;9.45;;;;;;;3.32;75.27;100457.91;471003;1171;114033;-61
2021/04/13 08:28:39;;;;;;;10.40;8.70;;;;;;;3.42;74.50;100452.54;470898;1170;114764;-60
2021/04/13 08:38:55;;;;;;;11.03;8.43;;;;;;;3.75;73.76;100448.36;469701;1170;114125;-61
2021/04/13 08:49:10;;;;;;;10.60;6.60;;;;;;;4.08;73.26;100447.62;471257;1171;114961;-60
2021/04/13 08:59:32;;;;;;;8.97;5.80;;;;;;;4.57;72.09;100445.58;471190;1171;114304;-61
2021/04/13 09:09:44;;;;;;;9.13;6.03;;;;;;;4.79;71.20;100438.95;470440;1171;114927;-62
2021/04/13 09:19:56;;;;;;;9.30;6.40;;;;;;;5.17;70.28;100443.11;470432;1171;114638;-59
2021/04/13 09:30:32;;;;;;;6.10;5.30;;;;;;;5.42;69.66;100431.99;470179;1171;114701;-61
2021/04/13 09:40:46;;;;;;;7.35;6.20;;;;;;;5.57;68.94;100441.11;469974;1171;114303;-61
2021/04/13 09:51:03;;;;;;;6.43;5.73;;;;;;;5.88;68.20;100437.59;471838;1171;114171;-60
2021/04/13 10:01:33;;;;;;;7.10;3.83;;;;;;;6.06;66.88;100431.88;471613;1171;114270;-61
2021/04/13 10:12:14;;;;;;;8.57;4.10;;;;;;;6.75;65.37;100417.42;471411;1170;114213;-61
2021/04/13 10:22:47;;;;;;;4.75;3.85;;;;;;;7.17;64.03;100421.20;471562;1172;114231;-60
2021/04/13 10:33:16;;;;;;;4.73;3.03;;;;;;;7.03;62.69;100408.63;471503;1170;113958;-61
2021/04/13 10:43:57;;;;;;;5.67;4.70;;;;;;;7.36;61.79;100396.06;471470;1171;113822;-59
2021/04/13 10:54:38;;;;;;;6.80;3.95;;;;;;;7.68;60.49;100388.75;471597;1171;113869;-59
2021/04/13 11:05:19;;;;;;;4.47;3.57;;;;;;;7.80;59.28;100374.36;471523;1171;114215;-59
2021/04/13 11:15:51;;;;;;;7.97;4.70;;;;;;;8.55;57.67;100368.70;471443;1170;114253;-60
2021/04/13 11:26:20;;;;;;;4.95;4.25;;;;;;;8.36;56.43;100368.61;471124;1170;114616;-60
2021/04/13 11:36:41;;;;;;;7.57;3.87;;;;;;;8.27;55.61;100373.31;471798;1170;113943;-59
2021/04/13 11:46:53;;;;;;;4.20;3.60;;;;;;;7.78;56.04;100375.33;471333;1171;114820;-59
2021/04/13 11:57:02;;;;;;;6.40;2.90;;;;;;;7.56;56.42;100365.71;470094;1171;114403;-59
2021/04/13 12:07:09;;;;;;;4.10;3.00;;;;;;;7.54;56.31;100357.92;471481;1171;115020;-61
2021/04/13 12:17:39;;;;;;;3.95;3.00;;;;;;;7.99;55.91;100357.91;470344;1171;114038;-59
2021/04/13 12:27:46;;;;;;;4.50;3.30;;;;;;;7.92;54.99;100346.02;471242;1170;114387;-61
2021/04/13 12:37:50;;;;;;;4.05;3.20;;;;;;;8.24;54.70;100336.81;471941;1169;114400;-60
2021/04/13 12:47:58;;;;;;;5.70;3.65;;;;;;;9.15;54.01;100328.50;471534;1171;114354;-59
2021/04/13 12:58:08;;;;;;;6.87;3.67;;;;;;;9.14;51.78;100321.56;463152;1171;10001399;-59
2021/04/13 13:08:20;;;;;;;7.30;4.60;;;;;;;9.41;52.21;100320.35;471192;1171;114732;-59
2021/04/13 13:18:36;;;;;;;5.53;4.27;;;;;;;8.84;51.69;100314.22;471509;1169;114074;-60
2021/04/13 13:28:43;;;;;;;9.20;5.50;;;;;;;8.12;52.29;100295.48;470116;1171;114325;-59
2021/04/13 13:38:47;;;;;;;15.73;6.10;;;;;;;7.63;53.84;100293.13;470196;1171;113913;-59
2021/04/13 13:48:51;;;;;;;8.37;5.50;;;;;;;8.14;53.97;100280.56;471275;1171;114552;-61
2021/04/13 13:59:19;;;;;;;6.83;6.13;;;;;;;8.04;53.80;100260.95;471076;1171;113993;-64
2021/04/13 14:09:23;;;;;;;7.47;6.40;;;;;;;8.63;52.79;100245.32;471110;1171;114161;-60
2021/04/13 14:19:33;;;;;;;8.35;6.20;;;;;;;8.91;51.56;100226.56;471146;1170;113774;-60
2021/04/13 14:29:39;;;;;;;13.10;7.77;;;;;;;8.95;51.08;100219.42;471057;1171;113809;-60
2021/04/13 14:39:45;;;;;;;12.25;6.85;;;;;;;9.02;50.51;100199.88;471307;1171;114028;-60
2021/04/13 14:49:52;;;;;;;8.53;5.97;;;;;;;8.77;49.63;100205.42;470675;1170;114231;-59
2021/04/13 14:59:57;;;;;;;7.93;5.77;;;;;;;8.30;49.98;100207.49;470665;1170;114324;-61
2021/04/13 15:10:04;;;;;;;9.40;5.90;;;;;;;7.82;50.29;100202.58;471372;1170;114504;-59
2021/04/13 15:20:12;;;;;;;8.35;6.00;;;;;;;7.54;50.11;100195.06;471921;1171;114243;-58
2021/04/13 15:30:17;;;;;;;8.20;5.50;;;;;;;7.46;50.10;100181.45;471338;1170;114199;-59
2021/04/13 15:40:23;;;;;;;7.65;5.30;;;;;;;7.36;49.33;100173.98;471489;1170;114671;-61
2021/04/13 15:50:27;;;;;;;5.87;3.87;;;;;;;7.20;47.78;100152.03;471261;1171;115372;-59
2021/04/13 16:00:33;;;;;;;6.50;5.07;;;;;;;7.14;47.64;100132.24;471352;1171;113696;-61
2021/04/13 16:10:37;;;;;;;8.50;5.37;;;;;;;6.99;47.23;100128.49;471591;1171;115255;-60
2021/04/13 16:20:59;;;;;;;6.30;4.87;;;;;;;6.83;46.95;100123.90;471367;1171;114157;-61
2021/04/13 16:31:29;;;;;;;6.37;4.50;;;;;;;6.67;47.42;100115.83;455829;1171;20002134;-60
2021/04/13 16:41:33;;;;;;;9.20;5.70;;;;;;;6.43;47.93;100122.83;471336;1171;115276;-60
2021/04/13 16:51:44;;;;;;;11.13;7.53;;;;;;;6.24;47.82;100126.16;471176;1171;114351;-60
2021/04/13 17:01:54;;;;;;;6.23;4.50;;;;;;;6.08;48.66;100123.27;471127;1171;114764;-61
2021/04/13 17:12:07;;;;;;;8.63;4.87;;;;;;;5.93;48.35;100126.38;471378;1170;114234;-60
2021/04/13 17:22:16;;;;;;;6.93;4.97;;;;;;;5.85;48.82;100124.06;471357;1171;114148;-60
2021/04/13 17:32:24;;;;;;;6.60;5.93;;;;;;;5.79;49.19;100130.34;471063;1171;114431;-59
2021/04/13 17:42:37;;;;;;;9.40;6.47;;;;;;;5.72;49.48;100140.13;471072;1170;115222;-60
2021/04/13 17:52:41;;;;;;;9.90;7.30;;;;;;;5.66;49.98;100144.70;471127;1170;114186;-60
2021/04/13 18:02:52;;;;;;;9.67;6.93;;;;;;;5.62;50.35;100159.59;471523;1171;114183;-60
2021/04/13 18:13:01;;;;;;;11.77;8.37;;;;;;;5.53;51.00;100155.55;470983;1171;113895;-60
2021/04/13 18:23:09;;;;;;;11.40;8.60;;;;;;;5.45;51.29;100155.82;455594;1170;20002107;-60
2021/04/13 18:33:17;;;;;;;11.23;8.70;;;;;;;5.37;51.31;100154.35;471400;1170;114577;-60
2021/04/13 18:43:26;;;;;;;11.20;9.00;;;;;;;5.31;51.48;100151.06;469887;1174;114355;-60
2021/04/13 18:53:36;;;;;;;11.60;8.20;;;;;;;5.27;51.50;100146.88;471268;1170;114370;-60
2021/04/13 19:03:40;;;;;;;10.50;7.40;;;;;;;5.25;51.52;100148.69;471210;1170;114207;-68
2021/04/13 19:13:54;;;;;;;9.20;6.90;;;;;;;5.27;51.88;100144.27;471312;1168;114726;-62
2021/04/13 19:24:04;;;;;;;7.55;6.60;;;;;;;5.27;51.97;100135.59;471533;1170;114251;-60
2021/04/13 19:34:15;;;;;;;8.90;6.53;;;;;;;5.16;52.26;100130.75;471200;1171;114261;-61
2021/04/13 19:44:24;;;;;;;8.50;6.30;;;;;;;5.11;51.71;100127.44;471315;1171;114216;-60
2021/04/13 19:54:34;;;;;;;12.37;6.13;;;;;;;5.04;52.37;100129.39;471126;1171;114563;-62
2021/04/13 20:04:41;;;;;;;6.83;5.37;;;;;;;5.00;51.64;100133.84;470958;1171;114255;-61
2021/04/13 20:14:53;;;;;;;7.97;3.93;;;;;;;4.96;52.15;100133.98;470998;1171;114233;-61
2021/04/13 20:25:03;;;;;;;7.30;3.60;;;;;;;4.94;52.45;100141.86;470986;1171;115037;-62
2021/04/13 20:35:33;;;;;;;5.57;3.47;;;;;;;4.95;52.18;100138.35;471028;1170;114588;-60
2021/04/13 20:45:37;;;;;;;7.63;4.33;;;;;;;4.89;52.49;100134.19;471786;1170;114192;-59
2021/04/13 20:55:46;;;;;;;7.27;5.13;;;;;;;4.87;52.09;100128.19;471137;1171;114432;-60
2021/04/13 21:05:56;;;;;;;8.13;4.93;;;;;;;4.87;52.24;100128.19;471327;1171;114949;-60
2021/04/13 21:16:03;;;;;;;6.60;3.90;;;;;;;4.87;52.60;100117.78;470901;1171;114135;-61
2021/04/13 21:26:09;;;;;;;8.20;4.20;;;;;;;4.85;52.19;100113.52;471031;1171;114282;-60
2021/04/13 21:36:17;;;;;;;6.03;3.07;;;;;;;4.84;52.04;100114.42;471419;1170;114326;-60
2021/04/13 21:46:25;;;;;;;8.33;5.40;;;;;;;4.80;52.57;100105.02;470926;1170;115497;-59
2021/04/13 21:56:44;;;;;;;5.97;3.17;;;;;;;4.77;52.68;100113.77;463267;1171;10001410;-63
2021/04/13 22:06:52;;;;;;;6.13;3.47;;;;;;;4.72;52.31;100116.52;475611;1171;115037;-60
2021/04/13 22:17:00;;;;;;;5.15;3.75;;;;;;;4.68;53.11;100117.52;471065;1170;113878;-59
2021/04/13 22:27:12;;;;;;;8.30;4.10;;;;;;;4.64;52.99;100121.09;470961;1171;113871;-61
2021/04/13 22:37:19;;;;;;;9.67;4.97;;;;;;;4.61;53.48;100127.23;471091;1170;114115;-60
2021/04/13 22:47:23;;;;;;;8.05;4.40;;;;;;;4.55;53.36;100116.17;471023;1170;114861;-60
2021/04/13 22:57:30;;;;;;;10.87;4.93;;;;;;;4.53;54.16;100111.03;471063;1171;113829;-60
2021/04/13 23:07:34;;;;;;;10.10;4.20;;;;;;;4.51;54.55;100109.37;471070;1170;114025;-61
2021/04/13 23:17:38;;;;;;;7.70;4.55;;;;;;;4.43;54.85;100104.41;471030;1170;114279;-60
2021/04/13 23:27:41;;;;;;;9.25;5.20;;;;;;;4.15;56.55;100113.88;470990;1171;114378;-61
2021/04/13 23:37:46;;;;;;;7.10;5.07;;;;;;;3.80;58.77;100118.33;471113;1171;113984;-60
2021/04/13 23:47:50;;;;;;;7.07;5.20;;;;;;;3.43;60.48;100108.93;471437;1170;114863;-60
2021/04/13 23:57:53;;;;;;;9.60;7.20;;;;;;;3.06;62.29;100119.36;470290;1174;114206;-61
